EXS12M EGCC-LPMA
Flight info
| Callsign | EXS12M |
|---|---|
| Flight time | 3h 46m |
| Altitude | 36000 |
| Route | ASMIM P16 NOKIN P17 OXCUD DCT TIGWE DCT ZIPWE DCT INFEC DCT PEWBI DCT GAPLI/M072F360 DCT LASNO T9 BEGAS/N0414F360 DCT RIPEL DCT LIDRO |
| Aircraft | B738/M-SDE2E3FGHIRWXY/LB1 |
Departure
| Time | 2026-05-05 14:25 |
|---|---|
| Airport | Manchester Airport (EGCC) |
Arrival
| Time | 2026-05-05 18:12 |
|---|---|
| Airport | Cristiano Ronaldo International Airport (LPMA) |
| Time | Latitude | Longitude | Altitude | Speed | Heading |
|---|---|---|---|---|---|
| 2026-05-05 14:01 | 53.36838 | -2.28886 | 254 ft | 0 kts | 135° |
| 2026-05-05 14:13 | 53.36848 | -2.28903 | 254 ft | 3 kts | 135° |
| 2026-05-05 14:14 | 53.36863 | -2.28928 | 254 ft | 3 kts | 162° |
| 2026-05-05 14:14 | 53.36880 | -2.28919 | 254 ft | 4 kts | 225° |
| 2026-05-05 14:14 | 53.36877 | -2.28923 | 254 ft | 4 kts | 225° |
| 2026-05-05 14:14 | 53.36870 | -2.28934 | 254 ft | 0 kts | 225° |
| 2026-05-05 14:17 | 53.36848 | -2.28972 | 254 ft | 14 kts | 225° |
| 2026-05-05 14:17 | 53.36784 | -2.29033 | 254 ft | 12 kts | 196° |
| 2026-05-05 14:18 | 53.36703 | -2.28967 | 254 ft | 17 kts | 135° |
| 2026-05-05 14:18 | 53.36613 | -2.28855 | 254 ft | 18 kts | 130° |
| 2026-05-05 14:18 | 53.36541 | -2.28694 | 254 ft | 17 kts | 133° |
| 2026-05-05 14:18 | 53.36461 | -2.28557 | 254 ft | 15 kts | 135° |
| 2026-05-05 14:19 | 53.36373 | -2.28477 | 254 ft | 14 kts | 169° |
| 2026-05-05 14:19 | 53.36295 | -2.28386 | 254 ft | 14 kts | 135° |
| 2026-05-05 14:19 | 53.36230 | -2.28276 | 254 ft | 13 kts | 134° |
| 2026-05-05 14:19 | 53.36165 | -2.28168 | 254 ft | 13 kts | 135° |
| 2026-05-05 14:20 | 53.36103 | -2.28063 | 254 ft | 13 kts | 137° |
| 2026-05-05 14:20 | 53.36038 | -2.27969 | 254 ft | 12 kts | 139° |
| 2026-05-05 14:20 | 53.35973 | -2.27877 | 254 ft | 12 kts | 144° |
| 2026-05-05 14:20 | 53.35895 | -2.27850 | 254 ft | 12 kts | 186° |
| 2026-05-05 14:21 | 53.35798 | -2.27867 | 249 ft | 16 kts | 185° |
| 2026-05-05 14:21 | 53.35674 | -2.27886 | 242 ft | 20 kts | 185° |
| 2026-05-05 14:21 | 53.35580 | -2.27995 | 237 ft | 17 kts | 231° |
| 2026-05-05 14:21 | 53.35484 | -2.28135 | 236 ft | 19 kts | 201° |
| 2026-05-05 14:22 | 53.35361 | -2.28176 | 237 ft | 18 kts | 193° |
| 2026-05-05 14:22 | 53.35253 | -2.28253 | 231 ft | 13 kts | 216° |
| 2026-05-05 14:22 | 53.35203 | -2.28345 | 230 ft | 11 kts | 232° |
| 2026-05-05 14:22 | 53.35147 | -2.28468 | 226 ft | 15 kts | 233° |
| 2026-05-05 14:23 | 53.35085 | -2.28605 | 228 ft | 14 kts | 231° |
| 2026-05-05 14:23 | 53.35017 | -2.28736 | 226 ft | 19 kts | 227° |
| 2026-05-05 14:23 | 53.34890 | -2.28958 | 221 ft | 30 kts | 226° |
| 2026-05-05 14:23 | 53.34746 | -2.29237 | 215 ft | 32 kts | 232° |
| 2026-05-05 14:24 | 53.34622 | -2.29342 | 214 ft | 17 kts | 179° |
| 2026-05-05 14:24 | 53.34539 | -2.29247 | 218 ft | 12 kts | 90° |
| 2026-05-05 14:24 | 53.34586 | -2.29128 | 214 ft | 13 kts | 51° |
| 2026-05-05 14:24 | 53.34819 | -2.28650 | 230 ft | 107 kts | 51° |
| 2026-05-05 14:25 | 53.35492 | -2.27264 | 399 ft | 189 kts | 48° |
| 2026-05-05 14:25 | 53.36365 | -2.25505 | 1348 ft | 210 kts | 49° |
| 2026-05-05 14:25 | 53.37357 | -2.23459 | 2122 ft | 239 kts | 50° |
| 2026-05-05 14:25 | 53.38483 | -2.21253 | 2957 ft | 249 kts | 41° |
| 2026-05-05 14:26 | 53.40063 | -2.19978 | 3370 ft | 273 kts | 7° |
| 2026-05-05 14:26 | 53.42033 | -2.20463 | 3661 ft | 309 kts | 336° |
| 2026-05-05 14:26 | 53.43750 | -2.22811 | 4384 ft | 329 kts | 310° |
| 2026-05-05 14:26 | 53.44881 | -2.26218 | 5397 ft | 339 kts | 290° |
| 2026-05-05 14:27 | 53.45226 | -2.30142 | 6486 ft | 345 kts | 271° |
| 2026-05-05 14:27 | 53.45183 | -2.34090 | 7495 ft | 348 kts | 269° |
| 2026-05-05 14:27 | 53.45087 | -2.38163 | 8459 ft | 353 kts | 268° |
| 2026-05-05 14:27 | 53.44987 | -2.42402 | 9170 ft | 365 kts | 268° |
| 2026-05-05 14:28 | 53.44902 | -2.46626 | 10075 ft | 368 kts | 269° |
| 2026-05-05 14:28 | 53.44828 | -2.50939 | 10902 ft | 373 kts | 269° |
| 2026-05-05 14:28 | 53.44759 | -2.55361 | 11759 ft | 376 kts | 269° |
| 2026-05-05 14:28 | 53.44488 | -2.59703 | 12510 ft | 383 kts | 255° |
| 2026-05-05 14:29 | 53.43316 | -2.63755 | 13182 ft | 395 kts | 234° |
| 2026-05-05 14:29 | 53.41324 | -2.66994 | 14133 ft | 397 kts | 218° |
| 2026-05-05 14:29 | 53.38893 | -2.69086 | 14944 ft | 401 kts | 204° |
| 2026-05-05 14:29 | 53.36264 | -2.70732 | 15672 ft | 405 kts | 202° |
| 2026-05-05 14:30 | 53.33605 | -2.72330 | 16367 ft | 409 kts | 202° |
| 2026-05-05 14:30 | 53.30922 | -2.73941 | 17110 ft | 411 kts | 202° |
| 2026-05-05 14:30 | 53.28222 | -2.75581 | 17765 ft | 415 kts | 202° |
| 2026-05-05 14:30 | 53.25496 | -2.77256 | 18399 ft | 419 kts | 202° |
| 2026-05-05 14:31 | 53.22752 | -2.78957 | 19009 ft | 422 kts | 202° |
| 2026-05-05 14:31 | 53.19996 | -2.80672 | 19611 ft | 424 kts | 202° |
| 2026-05-05 14:31 | 53.17228 | -2.82395 | 20206 ft | 427 kts | 202° |
| 2026-05-05 14:31 | 53.14440 | -2.84128 | 20777 ft | 429 kts | 202° |
| 2026-05-05 14:32 | 53.11629 | -2.85859 | 21326 ft | 432 kts | 201° |
| 2026-05-05 14:32 | 53.08702 | -2.87103 | 21818 ft | 439 kts | 191° |
| 2026-05-05 14:32 | 53.05645 | -2.87501 | 22330 ft | 444 kts | 182° |
| 2026-05-05 14:32 | 53.02555 | -2.87113 | 22843 ft | 449 kts | 173° |
| 2026-05-05 14:33 | 52.99463 | -2.86240 | 23349 ft | 452 kts | 172° |
| 2026-05-05 14:33 | 52.96364 | -2.85330 | 23782 ft | 454 kts | 172° |
| 2026-05-05 14:33 | 52.93255 | -2.84434 | 24246 ft | 454 kts | 172° |
| 2026-05-05 14:33 | 52.90125 | -2.83564 | 24608 ft | 457 kts | 173° |
| 2026-05-05 14:34 | 52.86973 | -2.82712 | 24923 ft | 461 kts | 173° |
| 2026-05-05 14:34 | 52.83793 | -2.81864 | 25271 ft | 464 kts | 172° |
| 2026-05-05 14:34 | 52.80603 | -2.81015 | 25626 ft | 466 kts | 172° |
| 2026-05-05 14:34 | 52.77393 | -2.80149 | 25942 ft | 469 kts | 172° |
| 2026-05-05 14:35 | 52.74170 | -2.79261 | 26294 ft | 470 kts | 172° |
| 2026-05-05 14:35 | 52.70953 | -2.78373 | 26802 ft | 467 kts | 172° |
| 2026-05-05 14:35 | 52.67753 | -2.77509 | 27353 ft | 464 kts | 173° |
| 2026-05-05 14:35 | 52.64564 | -2.76673 | 27761 ft | 465 kts | 172° |
| 2026-05-05 14:36 | 52.61359 | -2.75926 | 28090 ft | 467 kts | 175° |
| 2026-05-05 14:36 | 52.58123 | -2.75887 | 28583 ft | 464 kts | 184° |
| 2026-05-05 14:36 | 52.54914 | -2.76281 | 29087 ft | 462 kts | 185° |
| 2026-05-05 14:36 | 52.51693 | -2.76634 | 29441 ft | 465 kts | 184° |
| 2026-05-05 14:37 | 52.48475 | -2.76929 | 29814 ft | 465 kts | 183° |
| 2026-05-05 14:37 | 52.45303 | -2.77190 | 30756 ft | 451 kts | 184° |
| 2026-05-05 14:37 | 52.42181 | -2.77442 | 31294 ft | 449 kts | 183° |
| 2026-05-05 14:37 | 52.39043 | -2.77701 | 31454 ft | 455 kts | 183° |
| 2026-05-05 14:38 | 52.35865 | -2.77967 | 31690 ft | 458 kts | 183° |
| 2026-05-05 14:38 | 52.32728 | -2.78232 | 32187 ft | 455 kts | 183° |
| 2026-05-05 14:38 | 52.29527 | -2.78510 | 32589 ft | 455 kts | 183° |
| 2026-05-05 14:38 | 52.26356 | -2.78788 | 32885 ft | 458 kts | 183° |
| 2026-05-05 14:39 | 52.23221 | -2.79062 | 33386 ft | 453 kts | 184° |
| 2026-05-05 14:39 | 52.20065 | -2.79338 | 34136 ft | 445 kts | 184° |
| 2026-05-05 14:39 | 52.16963 | -2.79607 | 34382 ft | 448 kts | 184° |
| 2026-05-05 14:39 | 52.13833 | -2.79879 | 34485 ft | 454 kts | 184° |
| 2026-05-05 14:40 | 52.10679 | -2.80152 | 34793 ft | 453 kts | 184° |
| 2026-05-05 14:40 | 52.07540 | -2.80423 | 35182 ft | 451 kts | 184° |
| 2026-05-05 14:40 | 52.04402 | -2.80693 | 35441 ft | 453 kts | 183° |
| 2026-05-05 14:40 | 52.01247 | -2.80950 | 35640 ft | 455 kts | 184° |
| 2026-05-05 14:41 | 51.98140 | -2.81197 | 36020 ft | 451 kts | 184° |
| 2026-05-05 14:41 | 51.95003 | -2.81897 | 35977 ft | 448 kts | 199° |
| 2026-05-05 14:41 | 51.92241 | -2.84014 | 36005 ft | 447 kts | 215° |
| 2026-05-05 14:41 | 51.89862 | -2.87348 | 36031 ft | 448 kts | 229° |
| 2026-05-05 14:42 | 51.88108 | -2.91409 | 36004 ft | 447 kts | 244° |
| 2026-05-05 14:42 | 51.86879 | -2.96039 | 36024 ft | 448 kts | 248° |
| 2026-05-05 14:42 | 51.84627 | -3.05468 | 36020 ft | 451 kts | 249° |
| 2026-05-05 14:43 | 51.82300 | -3.14906 | 36023 ft | 453 kts | 248° |
| 2026-05-05 14:43 | 51.79893 | -3.24328 | 36005 ft | 455 kts | 247° |
| 2026-05-05 14:44 | 51.77341 | -3.33666 | 36011 ft | 455 kts | 246° |
| 2026-05-05 14:44 | 51.74767 | -3.42984 | 35987 ft | 455 kts | 246° |
| 2026-05-05 14:45 | 51.72203 | -3.52323 | 36000 ft | 456 kts | 246° |
| 2026-05-05 14:45 | 51.69654 | -3.61692 | 35996 ft | 456 kts | 247° |
| 2026-05-05 14:46 | 51.67185 | -3.71111 | 36007 ft | 456 kts | 248° |
| 2026-05-05 14:46 | 51.64714 | -3.80536 | 36001 ft | 457 kts | 247° |
| 2026-05-05 14:47 | 51.62227 | -3.89931 | 35989 ft | 457 kts | 247° |
| 2026-05-05 14:47 | 51.59723 | -3.99337 | 36006 ft | 458 kts | 247° |
| 2026-05-05 14:48 | 51.57205 | -4.08749 | 36010 ft | 459 kts | 247° |
| 2026-05-05 14:48 | 51.54678 | -4.18166 | 36010 ft | 459 kts | 247° |
| 2026-05-05 14:49 | 51.52135 | -4.27584 | 36012 ft | 460 kts | 247° |
| 2026-05-05 14:49 | 51.49583 | -4.36991 | 36004 ft | 460 kts | 247° |
| 2026-05-05 14:50 | 51.47019 | -4.46407 | 36021 ft | 461 kts | 247° |
| 2026-05-05 14:50 | 51.44462 | -4.55756 | 36019 ft | 461 kts | 247° |
| 2026-05-05 14:51 | 51.41879 | -4.65168 | 36022 ft | 462 kts | 247° |
| 2026-05-05 14:51 | 51.39288 | -4.74582 | 36022 ft | 462 kts | 246° |
| 2026-05-05 14:52 | 51.36684 | -4.83989 | 36021 ft | 462 kts | 247° |
| 2026-05-05 14:52 | 51.34075 | -4.93399 | 36029 ft | 463 kts | 247° |
| 2026-05-05 14:53 | 51.31432 | -5.02791 | 36024 ft | 464 kts | 245° |
| 2026-05-05 14:53 | 51.28004 | -5.11554 | 36030 ft | 466 kts | 237° |
| 2026-05-05 14:54 | 51.24325 | -5.20077 | 36036 ft | 466 kts | 236° |
| 2026-05-05 14:54 | 51.20662 | -5.28604 | 36034 ft | 466 kts | 237° |
| 2026-05-05 14:55 | 51.17027 | -5.37150 | 36038 ft | 466 kts | 237° |
| 2026-05-05 14:55 | 51.13399 | -5.45701 | 36040 ft | 465 kts | 237° |
| 2026-05-05 14:56 | 51.10386 | -5.52798 | 36041 ft | 465 kts | 236° |
| 2026-05-05 14:56 | 51.06767 | -5.61282 | 36041 ft | 465 kts | 237° |
| 2026-05-05 14:57 | 51.03133 | -5.69775 | 36038 ft | 465 kts | 238° |
| 2026-05-05 14:57 | 50.99490 | -5.78259 | 36049 ft | 465 kts | 237° |
| 2026-05-05 14:58 | 50.95833 | -5.86750 | 36049 ft | 466 kts | 237° |
| 2026-05-05 14:58 | 50.92165 | -5.95244 | 36049 ft | 467 kts | 237° |
| 2026-05-05 14:59 | 50.88485 | -6.03727 | 36051 ft | 468 kts | 237° |
| 2026-05-05 14:59 | 50.84802 | -6.12204 | 36047 ft | 468 kts | 236° |
| 2026-05-05 15:00 | 50.81733 | -6.19244 | 36050 ft | 467 kts | 237° |
| 2026-05-05 15:00 | 50.77413 | -6.29111 | 36061 ft | 467 kts | 236° |
| 2026-05-05 15:01 | 50.73715 | -6.37528 | 36061 ft | 467 kts | 237° |
| 2026-05-05 15:01 | 50.70016 | -6.45925 | 36059 ft | 466 kts | 236° |
| 2026-05-05 15:02 | 50.66301 | -6.54330 | 36053 ft | 467 kts | 236° |
| 2026-05-05 15:02 | 50.62586 | -6.62709 | 36062 ft | 466 kts | 236° |
| 2026-05-05 15:03 | 50.58894 | -6.71009 | 36063 ft | 466 kts | 236° |
| 2026-05-05 15:03 | 50.55173 | -6.79347 | 36063 ft | 466 kts | 236° |
| 2026-05-05 15:04 | 50.51445 | -6.87676 | 36065 ft | 466 kts | 236° |
| 2026-05-05 15:04 | 50.47711 | -6.95991 | 36066 ft | 466 kts | 236° |
| 2026-05-05 15:05 | 50.42114 | -7.08404 | 36070 ft | 464 kts | 236° |
| 2026-05-05 15:06 | 50.38374 | -7.16668 | 36074 ft | 464 kts | 236° |
| 2026-05-05 15:06 | 50.34632 | -7.24909 | 36077 ft | 465 kts | 236° |
| 2026-05-05 15:07 | 50.30878 | -7.33153 | 36071 ft | 465 kts | 236° |
| 2026-05-05 15:07 | 50.27120 | -7.41377 | 36076 ft | 465 kts | 236° |
| 2026-05-05 15:08 | 50.23357 | -7.49587 | 36068 ft | 464 kts | 236° |
| 2026-05-05 15:08 | 50.19595 | -7.57772 | 36078 ft | 464 kts | 236° |
| 2026-05-05 15:09 | 50.15828 | -7.65940 | 36067 ft | 464 kts | 236° |
| 2026-05-05 15:09 | 50.12051 | -7.74106 | 36082 ft | 465 kts | 236° |
| 2026-05-05 15:10 | 50.08261 | -7.82277 | 36077 ft | 465 kts | 236° |
| 2026-05-05 15:10 | 50.04468 | -7.90430 | 36082 ft | 465 kts | 235° |
| 2026-05-05 15:11 | 50.00418 | -7.98179 | 36081 ft | 467 kts | 224° |
| 2026-05-05 15:11 | 49.95058 | -8.03860 | 36081 ft | 469 kts | 206° |
| 2026-05-05 15:12 | 49.89132 | -8.08124 | 36083 ft | 470 kts | 205° |
| 2026-05-05 15:12 | 49.83184 | -8.12354 | 36086 ft | 471 kts | 205° |
| 2026-05-05 15:13 | 49.77245 | -8.16640 | 36073 ft | 471 kts | 206° |
| 2026-05-05 15:13 | 49.71321 | -8.20946 | 36082 ft | 470 kts | 206° |
| 2026-05-05 15:14 | 49.65402 | -8.25247 | 36080 ft | 471 kts | 206° |
| 2026-05-05 15:14 | 49.59471 | -8.29542 | 36089 ft | 471 kts | 206° |
| 2026-05-05 15:15 | 49.53536 | -8.33827 | 36082 ft | 471 kts | 206° |
| 2026-05-05 15:15 | 49.47593 | -8.38105 | 36087 ft | 472 kts | 206° |
| 2026-05-05 15:16 | 49.41642 | -8.42377 | 36082 ft | 472 kts | 206° |
| 2026-05-05 15:16 | 49.35682 | -8.46645 | 36086 ft | 473 kts | 206° |
| 2026-05-05 15:17 | 49.29707 | -8.50911 | 36086 ft | 473 kts | 206° |
| 2026-05-05 15:17 | 49.23734 | -8.55165 | 36084 ft | 473 kts | 206° |
| 2026-05-05 15:18 | 49.17758 | -8.59409 | 36087 ft | 474 kts | 206° |
| 2026-05-05 15:18 | 49.11771 | -8.63650 | 36089 ft | 475 kts | 206° |
| 2026-05-05 15:19 | 49.05776 | -8.67885 | 36087 ft | 475 kts | 206° |
| 2026-05-05 15:19 | 48.99770 | -8.72117 | 36088 ft | 476 kts | 206° |
| 2026-05-05 15:20 | 48.93761 | -8.76340 | 36083 ft | 476 kts | 206° |
| 2026-05-05 15:20 | 48.87732 | -8.80565 | 36079 ft | 477 kts | 206° |
| 2026-05-05 15:21 | 48.81710 | -8.84774 | 36088 ft | 476 kts | 206° |
| 2026-05-05 15:21 | 48.75726 | -8.88947 | 36087 ft | 476 kts | 206° |
| 2026-05-05 15:22 | 48.69705 | -8.93136 | 36087 ft | 477 kts | 206° |
| 2026-05-05 15:22 | 48.63670 | -8.97318 | 36091 ft | 477 kts | 205° |
| 2026-05-05 15:23 | 48.57282 | -8.99992 | 36094 ft | 479 kts | 187° |
| 2026-05-05 15:23 | 48.50623 | -9.00187 | 36091 ft | 479 kts | 179° |
| 2026-05-05 15:24 | 48.43950 | -9.00069 | 36091 ft | 480 kts | 179° |
| 2026-05-05 15:24 | 48.37274 | -9.00002 | 36084 ft | 480 kts | 180° |
| 2026-05-05 15:25 | 48.30600 | -8.99987 | 36086 ft | 480 kts | 180° |
| 2026-05-05 15:25 | 48.23919 | -8.99990 | 36086 ft | 481 kts | 180° |
| 2026-05-05 15:26 | 48.17223 | -8.99994 | 36086 ft | 482 kts | 180° |
| 2026-05-05 15:26 | 48.10516 | -8.99996 | 36086 ft | 482 kts | 180° |
| 2026-05-05 15:27 | 48.03794 | -8.99996 | 36083 ft | 484 kts | 180° |
| 2026-05-05 15:27 | 47.97058 | -8.99996 | 36087 ft | 485 kts | 180° |
| 2026-05-05 15:28 | 47.90313 | -8.99996 | 36083 ft | 485 kts | 180° |
| 2026-05-05 15:28 | 47.83554 | -8.99996 | 36081 ft | 486 kts | 180° |
| 2026-05-05 15:29 | 47.76779 | -8.99996 | 36086 ft | 487 kts | 180° |
| 2026-05-05 15:29 | 47.69999 | -8.99997 | 36079 ft | 488 kts | 180° |
| 2026-05-05 15:30 | 47.63210 | -8.99997 | 36080 ft | 488 kts | 180° |
| 2026-05-05 15:30 | 47.56413 | -8.99997 | 36081 ft | 489 kts | 180° |
| 2026-05-05 15:31 | 47.49652 | -8.99997 | 36077 ft | 489 kts | 180° |
| 2026-05-05 15:31 | 47.42841 | -8.99997 | 36081 ft | 489 kts | 180° |
| 2026-05-05 15:32 | 47.36035 | -8.99997 | 36078 ft | 489 kts | 180° |
| 2026-05-05 15:32 | 47.29229 | -8.99997 | 36079 ft | 489 kts | 180° |
| 2026-05-05 15:33 | 47.22419 | -8.99997 | 36080 ft | 489 kts | 180° |
| 2026-05-05 15:33 | 47.15610 | -8.99997 | 36075 ft | 489 kts | 180° |
| 2026-05-05 15:34 | 47.08809 | -8.99997 | 36076 ft | 489 kts | 180° |
| 2026-05-05 15:34 | 47.02009 | -8.99997 | 36073 ft | 489 kts | 180° |
| 2026-05-05 15:35 | 46.95209 | -8.99997 | 36075 ft | 489 kts | 180° |
| 2026-05-05 15:35 | 46.88409 | -8.99998 | 36073 ft | 489 kts | 180° |
| 2026-05-05 15:36 | 46.81608 | -8.99998 | 36064 ft | 489 kts | 180° |
| 2026-05-05 15:36 | 46.74798 | -8.99998 | 36076 ft | 489 kts | 180° |
| 2026-05-05 15:37 | 46.67983 | -8.99998 | 36076 ft | 490 kts | 180° |
| 2026-05-05 15:37 | 46.61148 | -8.99998 | 36075 ft | 491 kts | 180° |
| 2026-05-05 15:38 | 46.54316 | -8.99998 | 36072 ft | 492 kts | 180° |
| 2026-05-05 15:38 | 46.47471 | -8.99998 | 36075 ft | 492 kts | 180° |
| 2026-05-05 15:39 | 46.40628 | -8.99998 | 36070 ft | 492 kts | 180° |
| 2026-05-05 15:39 | 46.33783 | -8.99998 | 36071 ft | 492 kts | 180° |
| 2026-05-05 15:40 | 46.26941 | -8.99998 | 36075 ft | 492 kts | 180° |
| 2026-05-05 15:40 | 46.20095 | -8.99998 | 36071 ft | 492 kts | 180° |
| 2026-05-05 15:41 | 46.13252 | -8.99998 | 36071 ft | 492 kts | 180° |
| 2026-05-05 15:41 | 46.06413 | -8.99998 | 36070 ft | 492 kts | 180° |
| 2026-05-05 15:42 | 45.99616 | -8.99998 | 36069 ft | 492 kts | 180° |
| 2026-05-05 15:42 | 45.92775 | -8.99998 | 36068 ft | 492 kts | 180° |
| 2026-05-05 15:43 | 45.85935 | -8.99998 | 36068 ft | 492 kts | 180° |
| 2026-05-05 15:43 | 45.79097 | -8.99998 | 36076 ft | 491 kts | 181° |
| 2026-05-05 15:44 | 45.72257 | -8.99998 | 36070 ft | 491 kts | 181° |
| 2026-05-05 15:44 | 45.65419 | -8.99999 | 36066 ft | 491 kts | 181° |
| 2026-05-05 15:45 | 45.58590 | -8.99999 | 36061 ft | 491 kts | 181° |
| 2026-05-05 15:45 | 45.51752 | -8.99998 | 36061 ft | 491 kts | 181° |
| 2026-05-05 15:46 | 45.44915 | -8.99999 | 36065 ft | 492 kts | 181° |
| 2026-05-05 15:46 | 45.38068 | -8.99999 | 36063 ft | 492 kts | 181° |
| 2026-05-05 15:47 | 45.32326 | -8.99999 | 36070 ft | 493 kts | 181° |
| 2026-05-05 15:47 | 45.25510 | -8.99999 | 36068 ft | 494 kts | 181° |
| 2026-05-05 15:48 | 45.18635 | -8.99999 | 36070 ft | 494 kts | 181° |
| 2026-05-05 15:48 | 45.11716 | -9.00000 | 36066 ft | 494 kts | 181° |
| 2026-05-05 15:49 | 45.04889 | -9.00003 | 36067 ft | 494 kts | 182° |
| 2026-05-05 15:49 | 44.98171 | -9.01526 | 36065 ft | 488 kts | 200° |
| 2026-05-05 15:50 | 44.92025 | -9.05395 | 36075 ft | 483 kts | 210° |
| 2026-05-05 15:50 | 44.86037 | -9.09703 | 36071 ft | 483 kts | 210° |
| 2026-05-05 15:51 | 44.80036 | -9.13967 | 36070 ft | 483 kts | 210° |
| 2026-05-05 15:51 | 44.74027 | -9.18174 | 36065 ft | 482 kts | 210° |
| 2026-05-05 15:52 | 44.68025 | -9.22345 | 36068 ft | 481 kts | 210° |
| 2026-05-05 15:52 | 44.62029 | -9.26502 | 36076 ft | 480 kts | 210° |
| 2026-05-05 15:53 | 44.56044 | -9.30643 | 36072 ft | 479 kts | 210° |
| 2026-05-05 15:53 | 44.50062 | -9.34775 | 36074 ft | 479 kts | 210° |
| 2026-05-05 15:54 | 44.44090 | -9.38891 | 36076 ft | 479 kts | 210° |
| 2026-05-05 15:54 | 44.38115 | -9.42998 | 36078 ft | 478 kts | 210° |
| 2026-05-05 15:55 | 44.32135 | -9.47100 | 36052 ft | 478 kts | 210° |
| 2026-05-05 15:55 | 44.26181 | -9.51173 | 36069 ft | 476 kts | 210° |
| 2026-05-05 15:56 | 44.20241 | -9.55229 | 36071 ft | 475 kts | 210° |
| 2026-05-05 15:56 | 44.14313 | -9.59267 | 36072 ft | 474 kts | 210° |
| 2026-05-05 15:57 | 44.08398 | -9.63288 | 36066 ft | 473 kts | 210° |
| 2026-05-05 15:57 | 44.02490 | -9.67295 | 36073 ft | 472 kts | 210° |
| 2026-05-05 15:58 | 43.96590 | -9.71288 | 36080 ft | 471 kts | 210° |
| 2026-05-05 15:58 | 43.90697 | -9.75268 | 36090 ft | 471 kts | 210° |
| 2026-05-05 15:59 | 43.84798 | -9.79242 | 36080 ft | 471 kts | 210° |
| 2026-05-05 15:59 | 43.78943 | -9.83177 | 36069 ft | 470 kts | 210° |
| 2026-05-05 16:00 | 43.73071 | -9.87116 | 36077 ft | 468 kts | 210° |
| 2026-05-05 16:00 | 43.67214 | -9.91036 | 36085 ft | 467 kts | 210° |
| 2026-05-05 16:01 | 43.61366 | -9.94942 | 36087 ft | 467 kts | 210° |
| 2026-05-05 16:01 | 43.55525 | -9.98834 | 36083 ft | 465 kts | 210° |
| 2026-05-05 16:02 | 43.49699 | -10.02708 | 36087 ft | 465 kts | 210° |
| 2026-05-05 16:02 | 43.43885 | -10.06566 | 36086 ft | 464 kts | 210° |
| 2026-05-05 16:03 | 43.38068 | -10.10418 | 36080 ft | 464 kts | 210° |
| 2026-05-05 16:03 | 43.32258 | -10.14257 | 36094 ft | 463 kts | 210° |
| 2026-05-05 16:04 | 43.26451 | -10.18085 | 36096 ft | 463 kts | 210° |
| 2026-05-05 16:04 | 43.20645 | -10.21905 | 36084 ft | 462 kts | 209° |
| 2026-05-05 16:05 | 43.14846 | -10.25711 | 36084 ft | 461 kts | 209° |
| 2026-05-05 16:05 | 43.09066 | -10.29498 | 36096 ft | 460 kts | 209° |
| 2026-05-05 16:06 | 43.03298 | -10.33269 | 36101 ft | 459 kts | 209° |
| 2026-05-05 16:06 | 42.97532 | -10.37031 | 36109 ft | 459 kts | 209° |
| 2026-05-05 16:07 | 42.91768 | -10.40783 | 36107 ft | 458 kts | 209° |
| 2026-05-05 16:07 | 42.86013 | -10.44522 | 36105 ft | 458 kts | 209° |
| 2026-05-05 16:08 | 42.80263 | -10.48250 | 36103 ft | 458 kts | 209° |
| 2026-05-05 16:08 | 42.74515 | -10.51969 | 36105 ft | 457 kts | 209° |
| 2026-05-05 16:09 | 42.68773 | -10.55676 | 36108 ft | 456 kts | 209° |
| 2026-05-05 16:09 | 42.63038 | -10.59371 | 36103 ft | 456 kts | 209° |
| 2026-05-05 16:10 | 42.57313 | -10.63053 | 36115 ft | 455 kts | 209° |
| 2026-05-05 16:10 | 42.51624 | -10.66704 | 36107 ft | 455 kts | 209° |
| 2026-05-05 16:11 | 42.45864 | -10.70393 | 36115 ft | 455 kts | 209° |
| 2026-05-05 16:12 | 42.34426 | -10.77698 | 36122 ft | 455 kts | 209° |
| 2026-05-05 16:13 | 42.20212 | -10.87033 | 36130 ft | 454 kts | 211° |
| 2026-05-05 16:13 | 42.14584 | -10.90898 | 36128 ft | 454 kts | 211° |
| 2026-05-05 16:14 | 42.03346 | -10.98541 | 36123 ft | 454 kts | 210° |
| 2026-05-05 16:15 | 41.92059 | -11.06158 | 36130 ft | 454 kts | 210° |
| 2026-05-05 16:16 | 41.80767 | -11.13747 | 36133 ft | 453 kts | 210° |
| 2026-05-05 16:17 | 41.72312 | -11.19411 | 36138 ft | 453 kts | 210° |
| 2026-05-05 16:18 | 41.63857 | -11.25058 | 36125 ft | 453 kts | 210° |
| 2026-05-05 16:19 | 41.55412 | -11.30681 | 36142 ft | 452 kts | 210° |
| 2026-05-05 16:19 | 41.46979 | -11.36281 | 36139 ft | 451 kts | 210° |
| 2026-05-05 16:20 | 41.35739 | -11.43718 | 36137 ft | 450 kts | 210° |
| 2026-05-05 16:22 | 41.21735 | -11.52945 | 36144 ft | 449 kts | 210° |
| 2026-05-05 16:23 | 41.10543 | -11.60287 | 36150 ft | 448 kts | 210° |
| 2026-05-05 16:23 | 41.02156 | -11.65770 | 36150 ft | 448 kts | 210° |
| 2026-05-05 16:24 | 40.96563 | -11.69418 | 36135 ft | 448 kts | 210° |
| 2026-05-05 16:25 | 40.88194 | -11.74863 | 36152 ft | 446 kts | 210° |
| 2026-05-05 16:25 | 40.79841 | -11.80283 | 36157 ft | 446 kts | 210° |
| 2026-05-05 16:26 | 40.68719 | -11.87476 | 36150 ft | 444 kts | 210° |
| 2026-05-05 16:27 | 40.63168 | -11.91056 | 36158 ft | 444 kts | 210° |
| 2026-05-05 16:27 | 40.57620 | -11.94628 | 36158 ft | 444 kts | 210° |
| 2026-05-05 16:28 | 40.52078 | -11.98189 | 36158 ft | 443 kts | 210° |
| 2026-05-05 16:28 | 40.46536 | -12.01743 | 36152 ft | 443 kts | 210° |
| 2026-05-05 16:29 | 40.40996 | -12.05290 | 36154 ft | 443 kts | 210° |
| 2026-05-05 16:29 | 40.35502 | -12.08801 | 36158 ft | 442 kts | 210° |
| 2026-05-05 16:30 | 40.29964 | -12.12333 | 36160 ft | 443 kts | 210° |
| 2026-05-05 16:30 | 40.24430 | -12.15856 | 36156 ft | 443 kts | 210° |
| 2026-05-05 16:31 | 40.18887 | -12.19379 | 36160 ft | 443 kts | 210° |
| 2026-05-05 16:31 | 40.13344 | -12.22895 | 36160 ft | 443 kts | 210° |
| 2026-05-05 16:32 | 40.07799 | -12.26406 | 36160 ft | 443 kts | 210° |
| 2026-05-05 16:32 | 40.02252 | -12.29911 | 36163 ft | 443 kts | 210° |
| 2026-05-05 16:33 | 39.96704 | -12.33411 | 36160 ft | 443 kts | 210° |
| 2026-05-05 16:33 | 39.91152 | -12.36908 | 36164 ft | 443 kts | 210° |
| 2026-05-05 16:34 | 39.86499 | -12.39833 | 36166 ft | 443 kts | 210° |
| 2026-05-05 16:34 | 39.80949 | -12.43317 | 36166 ft | 443 kts | 209° |
| 2026-05-05 16:35 | 39.75394 | -12.46797 | 36157 ft | 443 kts | 209° |
| 2026-05-05 16:35 | 39.69842 | -12.50269 | 36170 ft | 443 kts | 209° |
| 2026-05-05 16:36 | 39.64323 | -12.53714 | 36170 ft | 443 kts | 209° |
| 2026-05-05 16:36 | 39.58765 | -12.57178 | 36168 ft | 443 kts | 209° |
| 2026-05-05 16:37 | 39.53210 | -12.60634 | 36162 ft | 443 kts | 209° |
| 2026-05-05 16:37 | 39.47661 | -12.64078 | 36172 ft | 442 kts | 209° |
| 2026-05-05 16:38 | 39.42116 | -12.67516 | 36172 ft | 442 kts | 209° |
| 2026-05-05 16:38 | 39.36574 | -12.70944 | 36172 ft | 442 kts | 209° |
| 2026-05-05 16:39 | 39.31031 | -12.74368 | 36164 ft | 441 kts | 209° |
| 2026-05-05 16:39 | 39.25502 | -12.77776 | 36167 ft | 440 kts | 209° |
| 2026-05-05 16:40 | 39.19983 | -12.81173 | 36192 ft | 439 kts | 209° |
| 2026-05-05 16:40 | 39.14460 | -12.84567 | 36175 ft | 439 kts | 209° |
| 2026-05-05 16:41 | 39.08944 | -12.87950 | 36164 ft | 439 kts | 209° |
| 2026-05-05 16:41 | 39.03439 | -12.91319 | 36174 ft | 438 kts | 209° |
| 2026-05-05 16:42 | 38.97945 | -12.94678 | 36177 ft | 437 kts | 209° |
| 2026-05-05 16:42 | 38.92458 | -12.98026 | 36175 ft | 436 kts | 209° |
| 2026-05-05 16:43 | 38.86974 | -13.01366 | 36174 ft | 436 kts | 209° |
| 2026-05-05 16:43 | 38.81499 | -13.04695 | 36168 ft | 435 kts | 209° |
| 2026-05-05 16:44 | 38.76032 | -13.08013 | 36178 ft | 434 kts | 209° |
| 2026-05-05 16:44 | 38.70613 | -13.11297 | 36179 ft | 434 kts | 209° |
| 2026-05-05 16:45 | 38.65125 | -13.14617 | 36169 ft | 433 kts | 209° |
| 2026-05-05 16:45 | 38.59677 | -13.17908 | 36168 ft | 433 kts | 209° |
| 2026-05-05 16:46 | 38.54233 | -13.21190 | 36183 ft | 432 kts | 209° |
| 2026-05-05 16:46 | 38.48788 | -13.24467 | 36181 ft | 432 kts | 209° |
| 2026-05-05 16:47 | 38.43384 | -13.27715 | 36178 ft | 432 kts | 209° |
| 2026-05-05 16:47 | 38.37941 | -13.30980 | 36181 ft | 432 kts | 209° |
| 2026-05-05 16:48 | 38.32507 | -13.34234 | 36175 ft | 431 kts | 209° |
| 2026-05-05 16:48 | 38.27079 | -13.37479 | 36180 ft | 431 kts | 209° |
| 2026-05-05 16:49 | 38.21651 | -13.40719 | 36183 ft | 431 kts | 209° |
| 2026-05-05 16:49 | 38.16230 | -13.43950 | 36182 ft | 431 kts | 209° |
| 2026-05-05 16:50 | 38.10806 | -13.47178 | 36173 ft | 430 kts | 209° |
| 2026-05-05 16:50 | 38.05383 | -13.50398 | 36178 ft | 430 kts | 209° |
| 2026-05-05 16:51 | 37.99963 | -13.53612 | 36186 ft | 430 kts | 209° |
| 2026-05-05 16:51 | 37.94542 | -13.56821 | 36184 ft | 430 kts | 209° |
| 2026-05-05 16:52 | 37.89118 | -13.60028 | 36185 ft | 430 kts | 209° |
| 2026-05-05 16:52 | 37.83687 | -13.63232 | 36178 ft | 430 kts | 209° |
| 2026-05-05 16:53 | 37.78264 | -13.66427 | 36184 ft | 430 kts | 209° |
| 2026-05-05 16:53 | 37.72838 | -13.69618 | 36185 ft | 430 kts | 209° |
| 2026-05-05 16:54 | 37.67411 | -13.72805 | 36185 ft | 430 kts | 209° |
| 2026-05-05 16:54 | 37.61980 | -13.75989 | 36184 ft | 430 kts | 209° |
| 2026-05-05 16:55 | 37.56551 | -13.79167 | 36184 ft | 430 kts | 209° |
| 2026-05-05 16:55 | 37.51123 | -13.82339 | 36189 ft | 430 kts | 209° |
| 2026-05-05 16:56 | 37.45691 | -13.85508 | 36186 ft | 430 kts | 209° |
| 2026-05-05 16:56 | 37.40259 | -13.88672 | 36184 ft | 430 kts | 209° |
| 2026-05-05 16:57 | 37.34820 | -13.91835 | 36169 ft | 431 kts | 208° |
| 2026-05-05 16:57 | 37.29382 | -13.94992 | 36179 ft | 431 kts | 208° |
| 2026-05-05 16:58 | 37.23945 | -13.98144 | 36187 ft | 431 kts | 208° |
| 2026-05-05 16:58 | 37.18497 | -14.01297 | 36184 ft | 431 kts | 208° |
| 2026-05-05 16:59 | 37.13049 | -14.04445 | 36185 ft | 431 kts | 208° |
| 2026-05-05 16:59 | 37.07637 | -14.07568 | 36181 ft | 431 kts | 208° |
| 2026-05-05 17:00 | 37.02185 | -14.10708 | 36183 ft | 431 kts | 208° |
| 2026-05-05 17:00 | 36.96731 | -14.13844 | 36187 ft | 431 kts | 208° |
| 2026-05-05 17:01 | 36.91276 | -14.16977 | 36184 ft | 432 kts | 208° |
| 2026-05-05 17:01 | 36.85812 | -14.20109 | 36163 ft | 432 kts | 208° |
| 2026-05-05 17:02 | 36.80352 | -14.23234 | 36179 ft | 432 kts | 208° |
| 2026-05-05 17:02 | 36.74886 | -14.26358 | 36172 ft | 432 kts | 208° |
| 2026-05-05 17:03 | 36.69414 | -14.29480 | 36186 ft | 432 kts | 208° |
| 2026-05-05 17:03 | 36.63942 | -14.32597 | 36183 ft | 433 kts | 208° |
| 2026-05-05 17:04 | 36.58465 | -14.35712 | 36164 ft | 433 kts | 208° |
| 2026-05-05 17:04 | 36.52991 | -14.38821 | 36182 ft | 433 kts | 208° |
| 2026-05-05 17:05 | 36.47508 | -14.41930 | 36177 ft | 433 kts | 208° |
| 2026-05-05 17:05 | 36.42092 | -14.44993 | 36169 ft | 423 kts | 208° |
| 2026-05-05 17:06 | 36.36737 | -14.48020 | 36178 ft | 423 kts | 208° |
| 2026-05-05 17:06 | 36.31371 | -14.51052 | 36171 ft | 424 kts | 208° |
| 2026-05-05 17:07 | 36.26000 | -14.54080 | 36182 ft | 425 kts | 208° |
| 2026-05-05 17:07 | 36.20616 | -14.57110 | 36180 ft | 425 kts | 208° |
| 2026-05-05 17:08 | 36.15223 | -14.60140 | 36181 ft | 426 kts | 208° |
| 2026-05-05 17:08 | 36.09822 | -14.63169 | 36177 ft | 426 kts | 208° |
| 2026-05-05 17:09 | 36.04417 | -14.66197 | 36176 ft | 426 kts | 208° |
| 2026-05-05 17:09 | 35.99010 | -14.69221 | 36178 ft | 426 kts | 208° |
| 2026-05-05 17:10 | 35.93602 | -14.72241 | 36177 ft | 427 kts | 208° |
| 2026-05-05 17:10 | 35.88195 | -14.75255 | 36175 ft | 427 kts | 208° |
| 2026-05-05 17:11 | 35.82785 | -14.78268 | 36175 ft | 427 kts | 208° |
| 2026-05-05 17:11 | 35.77381 | -14.81272 | 36170 ft | 426 kts | 208° |
| 2026-05-05 17:12 | 35.72008 | -14.84255 | 36167 ft | 426 kts | 208° |
| 2026-05-05 17:12 | 35.66598 | -14.87253 | 36173 ft | 426 kts | 208° |
| 2026-05-05 17:13 | 35.61192 | -14.90245 | 36175 ft | 427 kts | 208° |
| 2026-05-05 17:13 | 35.55777 | -14.93238 | 36157 ft | 427 kts | 208° |
| 2026-05-05 17:14 | 35.50357 | -14.96228 | 36162 ft | 427 kts | 208° |
| 2026-05-05 17:14 | 35.44942 | -14.99212 | 36168 ft | 427 kts | 208° |
| 2026-05-05 17:15 | 35.39521 | -15.02195 | 36169 ft | 427 kts | 208° |
| 2026-05-05 17:15 | 35.34095 | -15.05175 | 36174 ft | 427 kts | 208° |
| 2026-05-05 17:16 | 35.28667 | -15.08153 | 36149 ft | 428 kts | 208° |
| 2026-05-05 17:16 | 35.23240 | -15.11125 | 36172 ft | 428 kts | 208° |
| 2026-05-05 17:17 | 35.17807 | -15.14097 | 36169 ft | 428 kts | 208° |
| 2026-05-05 17:17 | 35.12368 | -15.17067 | 36156 ft | 428 kts | 208° |
| 2026-05-05 17:18 | 35.06930 | -15.20032 | 36167 ft | 428 kts | 208° |
| 2026-05-05 17:18 | 35.01492 | -15.22994 | 36169 ft | 428 kts | 208° |
| 2026-05-05 17:19 | 34.96056 | -15.25949 | 36149 ft | 428 kts | 208° |
| 2026-05-05 17:19 | 34.90618 | -15.28901 | 36164 ft | 428 kts | 208° |
| 2026-05-05 17:20 | 34.85178 | -15.31851 | 36162 ft | 428 kts | 208° |
| 2026-05-05 17:20 | 34.79741 | -15.34794 | 36161 ft | 428 kts | 208° |
| 2026-05-05 17:21 | 34.74306 | -15.37732 | 36149 ft | 427 kts | 207° |
| 2026-05-05 17:22 | 34.66191 | -15.42111 | 36158 ft | 427 kts | 207° |
| 2026-05-05 17:22 | 34.60754 | -15.45040 | 36158 ft | 427 kts | 207° |
| 2026-05-05 17:23 | 34.55314 | -15.47966 | 36153 ft | 428 kts | 207° |
| 2026-05-05 17:23 | 34.50757 | -15.50413 | 36153 ft | 428 kts | 207° |
| 2026-05-05 17:24 | 34.45354 | -15.53312 | 36150 ft | 427 kts | 207° |
| 2026-05-05 17:24 | 34.39918 | -15.56224 | 36153 ft | 427 kts | 207° |
| 2026-05-05 17:25 | 34.34481 | -15.59132 | 36152 ft | 427 kts | 207° |
| 2026-05-05 17:25 | 34.29041 | -15.62038 | 36150 ft | 427 kts | 207° |
| 2026-05-05 17:26 | 34.23606 | -15.64937 | 36143 ft | 427 kts | 207° |
| 2026-05-05 17:26 | 34.18165 | -15.67835 | 36140 ft | 427 kts | 207° |
| 2026-05-05 17:27 | 34.12733 | -15.70725 | 36149 ft | 427 kts | 207° |
| 2026-05-05 17:27 | 34.07301 | -15.73610 | 36141 ft | 427 kts | 207° |
| 2026-05-05 17:28 | 34.01875 | -15.76488 | 36128 ft | 422 kts | 207° |
| 2026-05-05 17:28 | 33.99218 | -15.77892 | 35795 ft | 413 kts | 207° |
| 2026-05-05 17:28 | 33.96594 | -15.79280 | 35137 ft | 413 kts | 207° |
| 2026-05-05 17:28 | 33.93961 | -15.80675 | 34482 ft | 413 kts | 208° |
| 2026-05-05 17:29 | 33.91341 | -15.82061 | 33957 ft | 409 kts | 208° |
| 2026-05-05 17:29 | 33.88746 | -15.83432 | 33453 ft | 405 kts | 208° |
| 2026-05-05 17:29 | 33.86182 | -15.84786 | 32940 ft | 401 kts | 208° |
| 2026-05-05 17:29 | 33.83640 | -15.86128 | 32420 ft | 397 kts | 208° |
| 2026-05-05 17:30 | 33.81118 | -15.87458 | 31912 ft | 395 kts | 208° |
| 2026-05-05 17:30 | 33.78610 | -15.88781 | 31411 ft | 391 kts | 207° |
| 2026-05-05 17:30 | 33.76127 | -15.90090 | 30959 ft | 388 kts | 207° |
| 2026-05-05 17:30 | 33.73660 | -15.91390 | 30495 ft | 386 kts | 207° |
| 2026-05-05 17:31 | 33.71214 | -15.92677 | 30012 ft | 383 kts | 207° |
| 2026-05-05 17:31 | 33.68776 | -15.93959 | 29086 ft | 386 kts | 208° |
| 2026-05-05 17:31 | 33.66282 | -15.95328 | 27735 ft | 400 kts | 211° |
| 2026-05-05 17:31 | 33.63866 | -15.97068 | 26462 ft | 410 kts | 216° |
| 2026-05-05 17:32 | 33.61441 | -15.98952 | 25261 ft | 419 kts | 216° |
| 2026-05-05 17:32 | 33.58983 | -16.00888 | 24116 ft | 426 kts | 216° |
| 2026-05-05 17:32 | 33.56489 | -16.02844 | 22946 ft | 430 kts | 216° |
| 2026-05-05 17:32 | 33.53981 | -16.04792 | 22017 ft | 428 kts | 216° |
| 2026-05-05 17:33 | 33.51499 | -16.06703 | 21260 ft | 421 kts | 216° |
| 2026-05-05 17:33 | 33.49049 | -16.08578 | 20491 ft | 415 kts | 215° |
| 2026-05-05 17:33 | 33.46631 | -16.10424 | 19692 ft | 411 kts | 215° |
| 2026-05-05 17:33 | 33.44229 | -16.12256 | 18888 ft | 408 kts | 215° |
| 2026-05-05 17:34 | 33.41844 | -16.14074 | 18058 ft | 405 kts | 215° |
| 2026-05-05 17:34 | 33.39480 | -16.15874 | 17225 ft | 401 kts | 215° |
| 2026-05-05 17:34 | 33.37149 | -16.17648 | 16484 ft | 395 kts | 215° |
| 2026-05-05 17:34 | 33.34832 | -16.19410 | 15689 ft | 392 kts | 215° |
| 2026-05-05 17:35 | 33.32536 | -16.21156 | 14842 ft | 391 kts | 215° |
| 2026-05-05 17:35 | 33.30253 | -16.22889 | 14186 ft | 386 kts | 216° |
| 2026-05-05 17:35 | 33.27996 | -16.24605 | 13366 ft | 384 kts | 214° |
| 2026-05-05 17:35 | 33.25748 | -16.26315 | 12514 ft | 383 kts | 214° |
| 2026-05-05 17:36 | 33.23513 | -16.28009 | 11808 ft | 378 kts | 214° |
| 2026-05-05 17:36 | 33.21298 | -16.29688 | 11101 ft | 375 kts | 214° |
| 2026-05-05 17:36 | 33.19103 | -16.31352 | 10357 ft | 373 kts | 214° |
| 2026-05-05 17:36 | 33.16917 | -16.33006 | 9623 ft | 371 kts | 214° |
| 2026-05-05 17:37 | 33.14768 | -16.34633 | 8924 ft | 367 kts | 213° |
| 2026-05-05 17:37 | 33.12608 | -16.36267 | 8305 ft | 361 kts | 213° |
| 2026-05-05 17:37 | 33.10497 | -16.37862 | 7615 ft | 358 kts | 213° |
| 2026-05-05 17:37 | 33.08399 | -16.39448 | 6928 ft | 356 kts | 213° |
| 2026-05-05 17:38 | 33.06339 | -16.41004 | 6310 ft | 352 kts | 212° |
| 2026-05-05 17:38 | 33.04285 | -16.42556 | 5618 ft | 349 kts | 212° |
| 2026-05-05 17:38 | 33.02241 | -16.44101 | 4920 ft | 347 kts | 211° |
| 2026-05-05 17:38 | 33.00208 | -16.45636 | 4467 ft | 344 kts | 211° |
| 2026-05-05 17:39 | 32.98172 | -16.47172 | 4327 ft | 350 kts | 211° |
| 2026-05-05 17:39 | 32.96109 | -16.48727 | 4199 ft | 353 kts | 211° |
| 2026-05-05 17:39 | 32.94046 | -16.50282 | 4078 ft | 348 kts | 211° |
| 2026-05-05 17:39 | 32.92020 | -16.51895 | 4005 ft | 348 kts | 217° |
| 2026-05-05 17:40 | 32.90222 | -16.53799 | 4007 ft | 347 kts | 222° |
| 2026-05-05 17:40 | 32.88466 | -16.55780 | 4005 ft | 351 kts | 221° |
| 2026-05-05 17:40 | 32.86665 | -16.57763 | 4006 ft | 354 kts | 220° |
| 2026-05-05 17:40 | 32.84862 | -16.59727 | 4006 ft | 351 kts | 224° |
| 2026-05-05 17:41 | 32.83522 | -16.62163 | 3983 ft | 356 kts | 249° |
| 2026-05-05 17:41 | 32.83111 | -16.65055 | 4013 ft | 359 kts | 270° |
| 2026-05-05 17:41 | 32.83557 | -16.67924 | 3988 ft | 354 kts | 294° |
| 2026-05-05 17:41 | 32.84821 | -16.70411 | 3968 ft | 350 kts | 315° |
| 2026-05-05 17:42 | 32.86757 | -16.72024 | 4016 ft | 338 kts | 339° |
| 2026-05-05 17:42 | 32.89009 | -16.72687 | 4012 ft | 332 kts | 358° |
| 2026-05-05 17:42 | 32.91298 | -16.72469 | 3961 ft | 331 kts | 14° |
| 2026-05-05 17:42 | 32.93423 | -16.71465 | 3756 ft | 328 kts | 32° |
| 2026-05-05 17:43 | 32.95200 | -16.69790 | 3430 ft | 324 kts | 44° |
| 2026-05-05 17:43 | 32.96873 | -16.67999 | 3086 ft | 321 kts | 44° |
| 2026-05-05 17:43 | 32.98433 | -16.66134 | 2985 ft | 322 kts | 58° |
| 2026-05-05 17:43 | 32.99189 | -16.63676 | 3018 ft | 316 kts | 83° |
| 2026-05-05 17:44 | 32.99059 | -16.61084 | 3024 ft | 315 kts | 102° |
| 2026-05-05 17:44 | 32.98227 | -16.58634 | 3003 ft | 326 kts | 120° |
| 2026-05-05 17:44 | 32.96714 | -16.56587 | 2988 ft | 335 kts | 140° |
| 2026-05-05 17:44 | 32.94627 | -16.55328 | 3006 ft | 342 kts | 161° |
| 2026-05-05 17:45 | 32.92253 | -16.55121 | 3007 ft | 347 kts | 182° |
| 2026-05-05 17:45 | 32.89917 | -16.55878 | 3017 ft | 351 kts | 202° |
| 2026-05-05 17:45 | 32.87756 | -16.57280 | 3005 ft | 357 kts | 208° |
| 2026-05-05 17:45 | 32.85636 | -16.58826 | 3002 ft | 358 kts | 209° |
| 2026-05-05 17:46 | 32.83624 | -16.60448 | 3010 ft | 347 kts | 214° |
| 2026-05-05 17:46 | 32.81703 | -16.62116 | 3034 ft | 329 kts | 214° |
| 2026-05-05 17:46 | 32.79886 | -16.63677 | 2982 ft | 316 kts | 213° |
| 2026-05-05 17:46 | 32.78131 | -16.65154 | 2969 ft | 302 kts | 212° |
| 2026-05-05 17:47 | 32.76455 | -16.66544 | 2975 ft | 287 kts | 213° |
| 2026-05-05 17:47 | 32.74877 | -16.67851 | 2934 ft | 275 kts | 213° |
| 2026-05-05 17:47 | 32.73335 | -16.69122 | 2837 ft | 265 kts | 213° |
| 2026-05-05 17:47 | 32.71841 | -16.70358 | 2732 ft | 258 kts | 213° |
| 2026-05-05 17:48 | 32.70386 | -16.71561 | 2637 ft | 253 kts | 213° |
| 2026-05-05 17:48 | 32.68977 | -16.72722 | 2563 ft | 247 kts | 213° |
| 2026-05-05 17:48 | 32.67594 | -16.73864 | 2462 ft | 241 kts | 213° |
| 2026-05-05 17:48 | 32.66231 | -16.75006 | 2417 ft | 238 kts | 213° |
| 2026-05-05 17:49 | 32.64921 | -16.76215 | 2236 ft | 238 kts | 225° |
| 2026-05-05 17:49 | 32.63915 | -16.77776 | 2086 ft | 236 kts | 236° |
| 2026-05-05 17:49 | 32.63090 | -16.79429 | 2052 ft | 220 kts | 253° |
| 2026-05-05 17:49 | 32.62976 | -16.80933 | 2538 ft | 162 kts | 288° |
| 2026-05-05 17:50 | 32.63723 | -16.81806 | 2192 ft | 194 kts | 350° |
| 2026-05-05 17:50 | 32.65240 | -16.81489 | 1796 ft | 244 kts | 20° |
| 2026-05-05 17:50 | 32.66796 | -16.80613 | 1552 ft | 243 kts | 27° |
| 2026-05-05 17:50 | 32.68082 | -16.79530 | 763 ft | 222 kts | 49° |
| 2026-05-05 17:51 | 32.69088 | -16.78282 | 221 ft | 198 kts | 39° |
| 2026-05-05 17:51 | 32.69956 | -16.77266 | 519 ft | 159 kts | 43° |
| 2026-05-05 17:51 | 32.70691 | -16.76401 | 682 ft | 138 kts | 40° |
| 2026-05-05 17:51 | 32.71386 | -16.75734 | 859 ft | 126 kts | 43° |
| 2026-05-05 17:52 | 32.72134 | -16.74838 | 1177 ft | 183 kts | 46° |
| 2026-05-05 17:52 | 32.73047 | -16.73772 | 1654 ft | 185 kts | 45° |
| 2026-05-05 17:52 | 32.73968 | -16.72695 | 2128 ft | 194 kts | 45° |
| 2026-05-05 17:52 | 32.75033 | -16.71445 | 2666 ft | 230 kts | 45° |
| 2026-05-05 17:53 | 32.76139 | -16.70106 | 2948 ft | 225 kts | 50° |
| 2026-05-05 17:53 | 32.76769 | -16.68360 | 2991 ft | 239 kts | 86° |
| 2026-05-05 17:53 | 32.76480 | -16.66416 | 2990 ft | 242 kts | 110° |
| 2026-05-05 17:53 | 32.75536 | -16.64792 | 2993 ft | 241 kts | 135° |
| 2026-05-05 17:54 | 32.74086 | -16.63809 | 3002 ft | 245 kts | 160° |
| 2026-05-05 17:54 | 32.72368 | -16.63691 | 2998 ft | 253 kts | 185° |
| 2026-05-05 17:54 | 32.70716 | -16.64475 | 3017 ft | 259 kts | 205° |
| 2026-05-05 17:54 | 32.69181 | -16.65590 | 3003 ft | 259 kts | 208° |
| 2026-05-05 17:55 | 32.67658 | -16.66733 | 2994 ft | 261 kts | 208° |
| 2026-05-05 17:55 | 32.66127 | -16.67886 | 2986 ft | 261 kts | 208° |
| 2026-05-05 17:55 | 32.64593 | -16.69034 | 3004 ft | 262 kts | 209° |
| 2026-05-05 17:55 | 32.63044 | -16.70189 | 3010 ft | 264 kts | 211° |
| 2026-05-05 17:56 | 32.61473 | -16.71354 | 2990 ft | 268 kts | 211° |
| 2026-05-05 17:56 | 32.59891 | -16.72529 | 3012 ft | 267 kts | 211° |
| 2026-05-05 17:56 | 32.58313 | -16.73697 | 2985 ft | 268 kts | 211° |
| 2026-05-05 17:56 | 32.56736 | -16.74856 | 2992 ft | 267 kts | 207° |
| 2026-05-05 17:57 | 32.54990 | -16.75487 | 2982 ft | 261 kts | 178° |
| 2026-05-05 17:57 | 32.53247 | -16.75050 | 2984 ft | 257 kts | 151° |
| 2026-05-05 17:57 | 32.51934 | -16.73684 | 3005 ft | 251 kts | 121° |
| 2026-05-05 17:57 | 32.51389 | -16.71782 | 2994 ft | 242 kts | 90° |
| 2026-05-05 17:58 | 32.51559 | -16.69864 | 3001 ft | 228 kts | 77° |
| 2026-05-05 17:58 | 32.51862 | -16.68073 | 2988 ft | 216 kts | 77° |
| 2026-05-05 17:58 | 32.52172 | -16.66384 | 2983 ft | 205 kts | 77° |
| 2026-05-05 17:58 | 32.52468 | -16.64773 | 2974 ft | 195 kts | 76° |
| 2026-05-05 17:59 | 32.52752 | -16.63233 | 2977 ft | 187 kts | 76° |
| 2026-05-05 17:59 | 32.53084 | -16.61766 | 2957 ft | 182 kts | 62° |
| 2026-05-05 17:59 | 32.53899 | -16.60753 | 2994 ft | 175 kts | 37° |
| 2026-05-05 17:59 | 32.54892 | -16.59900 | 2998 ft | 179 kts | 37° |
| 2026-05-05 18:00 | 32.55582 | -16.59309 | 2990 ft | 182 kts | 36° |
| 2026-05-05 18:00 | 32.56951 | -16.58136 | 2992 ft | 184 kts | 37° |
| 2026-05-05 18:00 | 32.57991 | -16.57279 | 2994 ft | 179 kts | 36° |
| 2026-05-05 18:00 | 32.59024 | -16.56504 | 2969 ft | 173 kts | 35° |
| 2026-05-05 18:01 | 32.60027 | -16.55753 | 2981 ft | 171 kts | 35° |
| 2026-05-05 18:01 | 32.61058 | -16.54987 | 3017 ft | 178 kts | 37° |
| 2026-05-05 18:01 | 32.62122 | -16.54193 | 3017 ft | 181 kts | 37° |
| 2026-05-05 18:01 | 32.63193 | -16.53407 | 3004 ft | 180 kts | 37° |
| 2026-05-05 18:02 | 32.64240 | -16.52614 | 2986 ft | 178 kts | 35° |
| 2026-05-05 18:02 | 32.65289 | -16.51827 | 3002 ft | 180 kts | 39° |
| 2026-05-05 18:02 | 32.66289 | -16.50881 | 2995 ft | 191 kts | 34° |
| 2026-05-05 18:02 | 32.67620 | -16.50503 | 2988 ft | 207 kts | 358° |
| 2026-05-05 18:03 | 32.69063 | -16.50713 | 3026 ft | 212 kts | 357° |
| 2026-05-05 18:03 | 32.70539 | -16.50939 | 2995 ft | 214 kts | 358° |
| 2026-05-05 18:03 | 32.71992 | -16.51185 | 2997 ft | 209 kts | 357° |
| 2026-05-05 18:03 | 32.73431 | -16.51432 | 2985 ft | 209 kts | 354° |
| 2026-05-05 18:04 | 32.74870 | -16.51669 | 2996 ft | 209 kts | 356° |
| 2026-05-05 18:04 | 32.76315 | -16.51904 | 2991 ft | 210 kts | 356° |
| 2026-05-05 18:04 | 32.77749 | -16.52192 | 2973 ft | 213 kts | 347° |
| 2026-05-05 18:04 | 32.78953 | -16.53231 | 3022 ft | 217 kts | 315° |
| 2026-05-05 18:05 | 32.80034 | -16.54471 | 2995 ft | 217 kts | 323° |
| 2026-05-05 18:05 | 32.80984 | -16.55873 | 2974 ft | 224 kts | 290° |
| 2026-05-05 18:05 | 32.80990 | -16.57684 | 3020 ft | 223 kts | 254° |
| 2026-05-05 18:05 | 32.80612 | -16.59504 | 3022 ft | 231 kts | 258° |
| 2026-05-05 18:06 | 32.80311 | -16.61399 | 3040 ft | 234 kts | 261° |
| 2026-05-05 18:06 | 32.80218 | -16.62044 | 3034 ft | 235 kts | 260° |
| 2026-05-05 18:06 | 32.78815 | -16.64673 | 2979 ft | 227 kts | 215° |
| 2026-05-05 18:06 | 32.77537 | -16.65703 | 3029 ft | 219 kts | 212° |
| 2026-05-05 18:07 | 32.76319 | -16.66786 | 2979 ft | 215 kts | 213° |
| 2026-05-05 18:07 | 32.75111 | -16.67773 | 2971 ft | 206 kts | 211° |
| 2026-05-05 18:07 | 32.73928 | -16.68722 | 3022 ft | 207 kts | 209° |
| 2026-05-05 18:07 | 32.72739 | -16.69657 | 2986 ft | 204 kts | 209° |
| 2026-05-05 18:08 | 32.71573 | -16.70599 | 2971 ft | 201 kts | 214° |
| 2026-05-05 18:08 | 32.70440 | -16.71525 | 2923 ft | 195 kts | 215° |
| 2026-05-05 18:08 | 32.69347 | -16.72422 | 2896 ft | 187 kts | 215° |
| 2026-05-05 18:08 | 32.68293 | -16.73262 | 2873 ft | 179 kts | 204° |
| 2026-05-05 18:09 | 32.67140 | -16.73861 | 2674 ft | 186 kts | 217° |
| 2026-05-05 18:09 | 32.66287 | -16.74960 | 2636 ft | 177 kts | 237° |
| 2026-05-05 18:09 | 32.65664 | -16.76238 | 2374 ft | 184 kts | 246° |
| 2026-05-05 18:09 | 32.65325 | -16.77655 | 2265 ft | 172 kts | 270° |
| 2026-05-05 18:10 | 32.65442 | -16.78576 | 2040 ft | 173 kts | 288° |
| 2026-05-05 18:10 | 32.66084 | -16.79658 | 1903 ft | 157 kts | 335° |
| 2026-05-05 18:10 | 32.67123 | -16.79893 | 1455 ft | 153 kts | 6° |
| 2026-05-05 18:10 | 32.68076 | -16.79442 | 920 ft | 154 kts | 39° |
| 2026-05-05 18:11 | 32.69126 | -16.78232 | 217 ft | 154 kts | 43° |
| 2026-05-05 18:11 | 32.69609 | -16.77661 | 175 ft | 136 kts | 43° |
| 2026-05-05 18:11 | 32.70151 | -16.77033 | 175 ft | 97 kts | 45° |
| 2026-05-05 18:11 | 32.70587 | -16.76523 | 175 ft | 65 kts | 42° |
| 2026-05-05 18:12 | 32.70671 | -16.76445 | 175 ft | 0 kts | 72° |
| 2026-05-05 18:12 | 32.70638 | -16.76427 | 175 ft | 22 kts | 217° |
| 2026-05-05 18:12 | 32.70500 | -16.76610 | 175 ft | 32 kts | 223° |
| 2026-05-05 18:12 | 32.70369 | -16.76762 | 175 ft | 23 kts | 224° |
| 2026-05-05 18:13 | 32.70233 | -16.76924 | 175 ft | 37 kts | 225° |
| 2026-05-05 18:13 | 32.70037 | -16.77151 | 175 ft | 33 kts | 215° |
| 2026-05-05 18:13 | 32.69855 | -16.77182 | 175 ft | 19 kts | 195° |
| 2026-05-05 18:13 | 32.69763 | -16.77272 | 175 ft | 19 kts | 226° |
| 2026-05-05 18:14 | 32.69649 | -16.77409 | 175 ft | 26 kts | 227° |
| 2026-05-05 18:14 | 32.69524 | -16.77567 | 175 ft | 13 kts | 227° |
| 2026-05-05 18:14 | 32.69475 | -16.77591 | 175 ft | 6 kts | 156° |
| 2026-05-05 18:14 | 32.69454 | -16.77573 | 175 ft | 4 kts | 142° |
| 2026-05-05 18:15 | 32.69443 | -16.77562 | 175 ft | 1 kts | 140° |
| 2026-05-05 18:15 | 32.69438 | -16.77557 | 175 ft | 1 kts | 139° |
| 2026-05-05 18:15 | 32.69437 | -16.77556 | 175 ft | 0 kts | 139° |
| 2026-05-05 18:16 | 32.69437 | -16.77555 | 175 ft | 0 kts | 139° |
| 2026-05-05 18:16 | 32.69437 | -16.77556 | 175 ft | 0 kts | 139° |